createdAt,value
2023-08-20T00:01:32.284Z,101491.69
2023-08-20T00:04:06.225Z,101491.09
2023-08-20T00:06:36.645Z,101490.28
2023-08-20T00:09:07.791Z,101495.53
2023-08-20T00:11:37.327Z,101497.44
2023-08-20T00:14:07.247Z,101492.44
2023-08-20T00:16:37.709Z,101496.44
2023-08-20T00:19:10.885Z,101491.66
2023-08-20T00:21:45.649Z,101506.31
2023-08-20T00:24:16.692Z,101504.03
2023-08-20T00:26:46.905Z,101514.81
2023-08-20T00:29:16.482Z,101515.91
2023-08-20T00:31:46.099Z,101516.75
2023-08-20T00:34:18.557Z,101508.72
2023-08-20T00:36:47.897Z,101520.50
2023-08-20T00:39:17.467Z,101520.03
2023-08-20T00:41:47.027Z,101522.78
2023-08-20T00:44:16.597Z,101525.56
2023-08-20T00:46:46.213Z,101533.25
2023-08-20T00:49:18.577Z,101524.63
2023-08-20T00:51:49.425Z,101531.84
2023-08-20T00:54:19.390Z,101531.72
2023-08-20T00:56:49.130Z,101535.91
2023-08-20T00:59:19.110Z,101535.44
2023-08-20T01:01:48.775Z,101532.25
2023-08-20T01:04:21.245Z,101532.59
2023-08-20T01:06:55.602Z,101535.47
2023-08-20T01:09:34.623Z,101528.53
2023-08-20T01:12:07.200Z,101536.81
2023-08-20T01:14:36.916Z,101540.06
2023-08-20T01:17:07.002Z,101536.09
2023-08-20T01:19:39.572Z,101531.66
2023-08-20T01:22:21.681Z,101526.88
2023-08-20T01:24:59.932Z,101521.94
2023-08-20T01:27:47.868Z,101527.50
2023-08-20T01:30:21.844Z,101527.00
2023-08-20T01:32:55.820Z,101527.50
2023-08-20T01:35:29.108Z,101527.59
2023-08-20T01:38:05.931Z,101524.00
2023-08-20T01:40:35.772Z,101518.97
2023-08-20T01:43:05.330Z,101524.50
2023-08-20T01:45:37.656Z,101526.56
2023-08-20T01:48:07.812Z,101528.00
2023-08-20T01:50:39.268Z,101534.34
2023-08-20T01:53:08.858Z,101530.16
2023-08-20T01:55:39.370Z,101531.22
2023-08-20T01:58:08.935Z,101538.16
2023-08-20T02:00:41.155Z,101539.59
2023-08-20T02:03:11.257Z,101531.34
2023-08-20T02:05:41.299Z,101531.09
2023-08-20T02:08:12.669Z,101532.38
2023-08-20T02:10:43.031Z,101529.75
2023-08-20T02:13:12.589Z,101525.81
2023-08-20T02:15:44.735Z,101525.56
2023-08-20T02:18:14.319Z,101526.88
2023-08-20T02:20:47.170Z,101521.63
2023-08-20T02:23:17.008Z,101515.00
2023-08-20T02:25:47.764Z,101524.13
2023-08-20T02:28:17.380Z,101524.38
2023-08-20T02:30:50.447Z,101530.94
2023-08-20T02:33:20.076Z,101531.19
2023-08-20T02:35:49.615Z,101535.25
2023-08-20T02:38:19.183Z,101532.75
2023-08-20T02:40:48.824Z,101533.59
2023-08-20T02:43:18.375Z,101543.16
2023-08-20T02:45:50.567Z,101536.56
2023-08-20T02:48:21.546Z,101538.72
2023-08-20T02:50:51.140Z,101536.69
2023-08-20T02:53:20.725Z,101544.94
2023-08-20T02:55:50.741Z,101539.44
2023-08-20T02:58:20.496Z,101547.94
2023-08-20T03:00:53.881Z,101547.69
2023-08-20T03:03:23.864Z,101546.63
2023-08-20T03:05:53.470Z,101542.44
2023-08-20T03:08:23.211Z,101545.41
2023-08-20T03:10:52.978Z,101542.78
2023-08-20T03:13:26.294Z,101543.03
2023-08-20T03:15:58.428Z,101555.81
2023-08-20T03:18:28.195Z,101546.47
2023-08-20T03:20:58.791Z,101545.03
2023-08-20T03:23:28.499Z,101539.06
2023-08-20T03:26:01.474Z,101544.81
2023-08-20T03:28:30.967Z,101547.78
2023-08-20T03:31:06.044Z,101552.22
2023-08-20T03:33:40.087Z,101544.19
2023-08-20T03:36:09.817Z,101544.44
2023-08-20T03:38:39.370Z,101547.19
2023-08-20T03:41:08.990Z,101546.34
2023-08-20T03:43:39.342Z,101556.50
2023-08-20T03:46:12.115Z,101555.91
2023-08-20T03:48:41.808Z,101545.50
2023-08-20T03:51:11.420Z,101545.97
2023-08-20T03:53:40.968Z,101553.16
2023-08-20T03:56:10.680Z,101555.66
2023-08-20T03:58:40.231Z,101563.72
2023-08-20T04:01:12.792Z,101568.38
2023-08-20T04:03:42.401Z,101577.94
2023-08-20T04:06:12.013Z,101582.81
2023-08-20T04:08:41.587Z,101584.13
2023-08-20T04:11:11.132Z,101582.22
2023-08-20T04:13:44.874Z,101594.31
2023-08-20T04:16:17.571Z,101595.41
2023-08-20T04:18:47.153Z,101598.16
2023-08-20T04:21:16.727Z,101601.59
2023-08-20T04:23:46.274Z,101605.88
2023-08-20T04:26:15.916Z,101597.88
2023-08-20T04:28:46.064Z,101592.59
2023-08-20T04:31:18.310Z,101594.75
2023-08-20T04:33:54.333Z,101592.47
2023-08-20T04:36:30.616Z,101591.47
2023-08-20T04:39:00.187Z,101594.22
2023-08-20T04:41:32.978Z,101592.97
2023-08-20T04:44:02.537Z,101600.16
2023-08-20T04:46:34.874Z,101591.66
2023-08-20T04:49:04.560Z,101595.25
2023-08-20T04:51:34.138Z,101601.22
2023-08-20T04:54:03.742Z,101601.47
2023-08-20T04:56:33.351Z,101610.78
2023-08-20T04:59:03.033Z,101615.44
2023-08-20T05:02:01.133Z,101614.84
2023-08-20T05:04:42.967Z,101610.88
2023-08-20T05:07:12.536Z,101613.41
2023-08-20T05:09:42.136Z,101618.91
2023-08-20T05:12:11.992Z,101622.72
2023-08-20T05:14:41.616Z,101619.13
2023-08-20T05:17:13.820Z,101619.50
2023-08-20T05:19:43.376Z,101619.13
2023-08-20T05:22:13.135Z,101626.91
2023-08-20T05:24:42.988Z,101626.47
2023-08-20T05:27:15.610Z,101623.03
2023-08-20T05:29:47.654Z,101627.44
2023-08-20T05:32:20.905Z,101620.91
2023-08-20T05:34:50.577Z,101623.88
2023-08-20T05:37:20.256Z,101628.53
2023-08-20T05:39:50.105Z,101619.66
2023-08-20T05:42:20.615Z,101616.69
2023-08-20T05:44:57.038Z,101602.50
2023-08-20T05:47:32.955Z,101610.13
2023-08-20T05:50:03.452Z,101605.25
2023-08-20T05:52:33.205Z,101591.03
2023-08-20T05:55:02.924Z,101590.78
2023-08-20T05:57:33.874Z,101583.97
2023-08-20T06:00:03.496Z,101587.94
2023-08-20T06:02:45.440Z,101597.38
2023-08-20T06:05:15.221Z,101591.41
2023-08-20T06:07:44.798Z,101590.31
2023-08-20T06:10:14.629Z,101585.63
2023-08-20T06:12:44.222Z,101587.94
2023-08-20T06:15:25.403Z,101578.34
2023-08-20T06:17:57.584Z,101587.25
2023-08-20T06:20:27.188Z,101584.50
2023-08-20T06:22:56.742Z,101587.00
2023-08-20T06:25:26.398Z,101593.59
2023-08-20T06:27:55.957Z,101581.00
2023-08-20T06:30:25.511Z,101593.25
2023-08-20T06:32:57.942Z,101590.88
2023-08-20T06:35:27.596Z,101597.22
2023-08-20T06:37:57.156Z,101595.06
2023-08-20T06:40:26.738Z,101607.75
2023-08-20T06:42:56.296Z,101607.50
2023-08-20T06:45:25.891Z,101611.94
2023-08-20T06:47:58.862Z,101612.31
2023-08-20T06:50:28.484Z,101606.81
2023-08-20T06:52:58.052Z,101609.31
2023-08-20T06:55:27.631Z,101611.13
2023-08-20T06:57:57.177Z,101609.22
2023-08-20T07:00:26.878Z,101622.78
2023-08-20T07:02:59.083Z,101621.19
2023-08-20T07:05:28.864Z,101622.03
2023-08-20T07:07:58.460Z,101612.47
2023-08-20T07:10:28.100Z,101621.56
2023-08-20T07:12:57.651Z,101630.47
2023-08-20T07:15:27.239Z,101620.25
2023-08-20T07:17:59.422Z,101621.72
2023-08-20T07:20:29.049Z,101616.56
2023-08-20T07:22:58.623Z,101616.34
2023-08-20T07:25:28.504Z,101616.09
2023-08-20T07:28:00.611Z,101613.94
2023-08-20T07:30:32.464Z,101617.31
2023-08-20T07:33:06.478Z,101625.09
2023-08-20T07:35:36.879Z,101627.38
2023-08-20T07:38:07.031Z,101628.22
2023-08-20T07:40:36.599Z,101628.63
2023-08-20T07:43:06.279Z,101615.22
2023-08-20T07:45:35.871Z,101617.13
2023-08-20T07:48:08.986Z,101610.28
2023-08-20T07:50:38.683Z,101604.56
2023-08-20T07:53:08.302Z,101605.16
2023-08-20T07:55:38.181Z,101607.66
2023-08-20T07:58:08.020Z,101622.41
2023-08-20T08:00:37.596Z,101619.66
2023-08-20T08:03:11.023Z,101627.66
2023-08-20T08:05:41.026Z,101623.84
2023-08-20T08:08:10.885Z,101624.22
2023-08-20T08:10:40.476Z,101626.97
2023-08-20T08:13:11.483Z,101623.72
2023-08-20T08:15:41.470Z,101624.53
2023-08-20T08:18:13.807Z,101635.94
2023-08-20T08:20:43.558Z,101630.41
2023-08-20T08:23:13.230Z,101624.69
2023-08-20T08:25:43.817Z,101629.09
2023-08-20T08:28:13.461Z,101629.34
2023-08-20T08:30:43.782Z,101642.06
2023-08-20T08:33:15.971Z,101632.59
2023-08-20T08:35:45.581Z,101625.88
2023-08-20T08:38:15.174Z,101628.50
2023-08-20T08:40:46.534Z,101630.28
2023-08-20T08:43:18.512Z,101630.19
2023-08-20T08:45:51.689Z,101631.13
2023-08-20T08:48:25.294Z,101629.00
2023-08-20T08:50:56.090Z,101638.09
2023-08-20T08:53:28.726Z,101630.06
2023-08-20T08:55:58.686Z,101631.63
2023-08-20T08:58:28.244Z,101625.47
2023-08-20T09:00:58.066Z,101629.22
2023-08-20T09:03:30.309Z,101637.25
2023-08-20T09:06:02.496Z,101622.59
2023-08-20T09:08:33.427Z,101629.09
2023-08-20T09:11:05.765Z,101632.22
2023-08-20T09:13:40.179Z,101630.19
2023-08-20T09:16:10.951Z,101632.81
2023-08-20T09:18:48.925Z,101634.84
2023-08-20T09:21:18.459Z,101632.09
2023-08-20T09:23:49.688Z,101636.75
2023-08-20T09:26:19.248Z,101636.03
2023-08-20T09:28:50.191Z,101633.88
2023-08-20T09:31:19.856Z,101622.25
2023-08-20T09:33:56.370Z,101624.38
2023-08-20T09:36:34.634Z,101622.38
2023-08-20T09:39:05.141Z,101616.00
2023-08-20T09:41:34.845Z,101619.03
2023-08-20T09:44:07.809Z,101618.19
2023-08-20T09:46:39.274Z,101615.44
2023-08-20T09:49:15.227Z,101606.66
2023-08-20T09:51:46.364Z,101613.03
2023-08-20T09:54:23.443Z,101605.06
2023-08-20T09:56:58.237Z,101609.53
2023-08-20T09:59:28.391Z,101607.13
2023-08-20T10:01:59.632Z,101605.44
2023-08-20T10:04:32.918Z,101603.50
2023-08-20T10:07:03.049Z,101602.53
2023-08-20T10:09:33.171Z,101601.19
2023-08-20T10:12:04.471Z,101608.06
2023-08-20T10:14:34.077Z,101602.53
2023-08-20T10:17:09.534Z,101597.38
2023-08-20T10:19:42.610Z,101600.97
2023-08-20T10:22:12.685Z,101600.47
2023-08-20T10:24:51.065Z,101596.88
2023-08-20T10:27:31.477Z,101600.00
2023-08-20T10:30:02.633Z,101598.91
2023-08-20T10:32:54.532Z,101595.66
2023-08-20T10:35:31.538Z,101592.06
2023-08-20T10:38:03.338Z,101596.34
2023-08-20T10:40:51.293Z,101610.06
2023-08-20T10:43:36.598Z,101598.81
2023-08-20T10:46:10.865Z,101608.84
2023-08-20T10:48:42.473Z,101602.91
2023-08-20T10:51:18.693Z,101602.34
2023-08-20T10:54:08.056Z,101607.81
2023-08-20T10:56:47.889Z,101606.00
2023-08-20T10:59:19.259Z,101612.69
2023-08-20T11:01:49.759Z,101613.72
2023-08-20T11:04:20.620Z,101608.56
2023-08-20T11:06:56.575Z,101609.97
2023-08-20T11:09:27.182Z,101608.63
2023-08-20T11:11:57.108Z,101610.22
2023-08-20T11:14:26.798Z,101609.38
2023-08-20T11:16:56.624Z,101613.22
2023-08-20T11:19:27.446Z,101597.59
2023-08-20T11:21:59.658Z,101602.41
2023-08-20T11:24:33.553Z,101606.03
2023-08-20T11:27:03.245Z,101605.28
2023-08-20T11:29:32.837Z,101605.72
2023-08-20T11:32:06.736Z,101603.94
2023-08-20T11:34:36.689Z,101595.72
2023-08-20T11:37:08.921Z,101598.09
2023-08-20T11:39:40.586Z,101595.94
2023-08-20T11:42:10.337Z,101595.72
2023-08-20T11:44:47.355Z,101586.09
2023-08-20T11:47:18.159Z,101594.16
2023-08-20T11:49:47.967Z,101594.44
2023-08-20T11:52:22.965Z,101587.31
2023-08-20T11:54:52.595Z,101587.44
2023-08-20T11:57:22.404Z,101589.91
2023-08-20T11:59:51.968Z,101595.69
2023-08-20T12:02:39.264Z,101590.13
2023-08-20T12:05:11.053Z,101593.22
2023-08-20T12:07:43.328Z,101592.22
2023-08-20T12:10:25.933Z,101583.50
2023-08-20T12:12:55.625Z,101582.47
2023-08-20T12:15:26.002Z,101583.50
2023-08-20T12:18:06.201Z,101582.81
2023-08-20T12:20:37.991Z,101583.16
2023-08-20T12:23:10.746Z,101588.84
2023-08-20T12:25:40.545Z,101574.28
2023-08-20T12:28:10.369Z,101577.91
2023-08-20T12:30:40.362Z,101575.63
2023-08-20T12:33:10.396Z,101574.38
2023-08-20T12:35:40.036Z,101573.84
2023-08-20T12:38:12.751Z,101574.09
2023-08-20T12:40:42.460Z,101572.44
2023-08-20T12:43:12.078Z,101567.44
2023-08-20T12:45:41.786Z,101574.91
2023-08-20T12:48:11.329Z,101568.16
2023-08-20T12:50:40.960Z,101567.31
2023-08-20T12:53:14.179Z,101564.88
2023-08-20T12:55:43.779Z,101570.72
2023-08-20T12:58:13.324Z,101566.44
2023-08-20T13:00:43.269Z,101564.97
2023-08-20T13:03:14.210Z,101560.50
2023-08-20T13:05:44.548Z,101565.59
2023-08-20T13:08:17.499Z,101566.47
2023-08-20T13:10:54.353Z,101566.94
2023-08-20T13:13:25.354Z,101562.13
2023-08-20T13:15:56.036Z,101562.75
2023-08-20T13:18:27.647Z,101563.19
2023-08-20T13:20:57.232Z,101554.75
2023-08-20T13:23:29.400Z,101557.00
2023-08-20T13:25:59.055Z,101560.34
2023-08-20T13:28:28.700Z,101555.88
2023-08-20T13:30:58.402Z,101552.84
2023-08-20T13:33:28.031Z,101555.66
2023-08-20T13:35:58.677Z,101549.00
2023-08-20T13:38:30.867Z,101555.09
2023-08-20T13:41:00.482Z,101559.81
2023-08-20T13:43:30.138Z,101556.47
2023-08-20T13:45:59.723Z,101555.34
2023-08-20T13:48:29.343Z,101552.06
2023-08-20T13:50:59.025Z,101546.84
2023-08-20T13:53:31.260Z,101547.31
2023-08-20T13:56:00.962Z,101548.16
2023-08-20T13:58:30.558Z,101541.81
2023-08-20T14:01:00.353Z,101542.38
2023-08-20T14:03:30.691Z,101541.53
2023-08-20T14:06:00.270Z,101537.56
2023-08-20T14:08:32.471Z,101537.50
2023-08-20T14:11:03.506Z,101538.66
2023-08-20T14:13:33.410Z,101534.53
2023-08-20T14:16:03.557Z,101532.25
2023-08-20T14:18:33.218Z,101532.34
2023-08-20T14:21:03.925Z,101525.13
2023-08-20T14:23:36.278Z,101534.28
2023-08-20T14:26:05.670Z,101532.81
2023-08-20T14:28:35.248Z,101531.13
2023-08-20T14:31:17.876Z,101532.47
2023-08-20T14:33:47.511Z,101533.00
2023-08-20T14:36:17.190Z,101518.59
2023-08-20T14:38:49.346Z,101511.38
2023-08-20T14:41:19.010Z,101503.66
2023-08-20T14:43:48.592Z,101510.53
2023-08-20T14:46:18.198Z,101507.50
2023-08-20T14:48:47.782Z,101503.06
2023-08-20T14:51:17.484Z,101499.16
2023-08-20T14:53:49.668Z,101498.88
2023-08-20T14:56:19.272Z,101503.00
2023-08-20T14:58:48.949Z,101501.91
2023-08-20T15:01:18.948Z,101497.50
2023-08-20T15:03:48.627Z,101496.03
2023-08-20T15:06:22.638Z,101501.63
2023-08-20T15:08:54.853Z,101488.25
2023-08-20T15:11:24.524Z,101489.63
2023-08-20T15:13:54.145Z,101486.63
2023-08-20T15:16:23.898Z,101471.09
2023-08-20T15:18:53.544Z,101475.53
2023-08-20T15:21:23.228Z,101464.19
2023-08-20T15:23:55.724Z,101465.31
2023-08-20T15:26:25.105Z,101473.06
2023-08-20T15:28:54.660Z,101482.47
2023-08-20T15:31:24.376Z,101473.84
2023-08-20T15:33:54.558Z,101481.91
2023-08-20T15:36:24.581Z,101479.16
2023-08-20T15:38:56.812Z,101479.69
2023-08-20T15:41:26.393Z,101481.38
2023-08-20T15:43:56.024Z,101473.00
2023-08-20T15:46:27.093Z,101476.38
2023-08-20T15:48:57.142Z,101467.75
2023-08-20T15:51:26.843Z,101472.44
2023-08-20T15:53:59.416Z,101475.22
2023-08-20T15:56:29.425Z,101476.59
2023-08-20T15:58:59.229Z,101472.13
2023-08-20T16:01:29.512Z,101474.09
2023-08-20T16:03:59.348Z,101470.75
2023-08-20T16:06:29.154Z,101469.66
2023-08-20T16:09:01.429Z,101464.13
2023-08-20T16:11:31.085Z,101462.72
2023-08-20T16:14:00.757Z,101462.97
2023-08-20T16:16:32.784Z,101467.44
2023-08-20T16:19:02.632Z,101473.81
2023-08-20T16:21:32.263Z,101473.00
2023-08-20T16:24:05.491Z,101474.91
2023-08-20T16:26:35.686Z,101477.13
2023-08-20T16:29:05.456Z,101476.00
2023-08-20T16:31:35.568Z,101482.66
2023-08-20T16:34:05.216Z,101474.91
2023-08-20T16:36:35.451Z,101474.59
2023-08-20T16:39:07.743Z,101479.06
2023-08-20T16:41:37.144Z,101474.34
2023-08-20T16:44:06.966Z,101471.28
2023-08-20T16:46:38.637Z,101472.38
2023-08-20T16:49:08.321Z,101475.44
2023-08-20T16:51:37.984Z,101473.50
2023-08-20T16:54:10.465Z,101471.84
2023-08-20T16:56:40.187Z,101473.47
2023-08-20T16:59:09.815Z,101479.00
2023-08-20T17:01:39.464Z,101479.53
2023-08-20T17:04:09.225Z,101473.19
2023-08-20T17:06:38.867Z,101477.03
2023-08-20T17:09:11.133Z,101485.63
2023-08-20T17:11:40.559Z,101481.44
2023-08-20T17:14:10.674Z,101472.81
2023-08-20T17:16:40.880Z,101482.25
2023-08-20T17:19:10.568Z,101485.34
2023-08-20T17:21:41.928Z,101487.50
2023-08-20T17:24:14.135Z,101484.19
2023-08-20T17:26:43.919Z,101486.97
2023-08-20T17:29:13.622Z,101490.25
2023-08-20T17:31:43.937Z,101474.16
2023-08-20T17:34:13.552Z,101483.03
2023-08-20T17:36:43.170Z,101484.97
2023-08-20T17:39:16.716Z,101482.47
2023-08-20T17:41:46.579Z,101482.19
2023-08-20T17:44:16.215Z,101479.94
2023-08-20T17:46:46.938Z,101476.03
2023-08-20T17:49:18.188Z,101479.09
2023-08-20T17:51:48.093Z,101476.56
2023-08-20T17:54:20.517Z,101471.84
2023-08-20T17:56:50.117Z,101479.34
2023-08-20T17:59:19.765Z,101470.44
2023-08-20T18:01:49.418Z,101470.72
2023-08-20T18:04:19.115Z,101465.19
2023-08-20T18:06:48.701Z,101471.56
2023-08-20T18:09:21.130Z,101467.34
2023-08-20T18:11:50.715Z,101469.56
2023-08-20T18:14:20.401Z,101470.09
2023-08-20T18:16:50.199Z,101486.41
2023-08-20T18:19:19.828Z,101489.44
2023-08-20T18:21:49.868Z,101498.31
2023-08-20T18:24:22.096Z,101493.84
2023-08-20T18:26:51.680Z,101504.91
2023-08-20T18:29:21.224Z,101498.53
2023-08-20T18:31:52.158Z,101503.50
2023-08-20T18:34:22.037Z,101508.22
2023-08-20T18:36:52.021Z,101516.28
2023-08-20T18:39:24.172Z,101517.38
2023-08-20T18:41:54.225Z,101517.38
2023-08-20T18:44:23.923Z,101525.91
2023-08-20T18:46:53.602Z,101525.91
2023-08-20T18:49:23.236Z,101530.06
2023-08-20T18:51:53.083Z,101532.81
2023-08-20T18:54:25.371Z,101524.19
2023-08-20T18:56:54.744Z,101533.63
2023-08-20T18:59:24.340Z,101533.31
2023-08-20T19:01:54.228Z,101535.47
2023-08-20T19:04:23.801Z,101536.84
2023-08-20T19:06:54.174Z,101542.91
2023-08-20T19:09:26.313Z,101545.66
2023-08-20T19:11:57.316Z,101548.97
2023-08-20T19:14:27.110Z,101550.06
2023-08-20T19:16:56.690Z,101552.53
2023-08-20T19:19:26.285Z,101557.66
2023-08-20T19:21:55.926Z,101562.78
2023-08-20T19:24:28.153Z,101569.94
2023-08-20T19:26:58.637Z,101571.56
2023-08-20T19:29:28.366Z,101577.28
2023-08-20T19:31:58.018Z,101579.16
2023-08-20T19:34:28.167Z,101570.75
2023-08-20T19:36:57.849Z,101572.09
2023-08-20T19:39:30.004Z,101583.69
2023-08-20T19:41:59.573Z,101591.94
2023-08-20T19:44:29.152Z,101593.53
2023-08-20T19:46:58.706Z,101588.50
2023-08-20T19:49:28.286Z,101590.19
2023-08-20T19:51:57.813Z,101585.72
2023-08-20T19:54:30.079Z,101589.28
2023-08-20T19:56:59.435Z,101595.38
2023-08-20T19:59:29.079Z,101605.59
2023-08-20T20:01:58.714Z,101604.69
2023-08-20T20:04:29.542Z,101603.28
2023-08-20T20:07:09.429Z,101604.38
2023-08-20T20:09:49.244Z,101615.69
2023-08-20T20:12:18.864Z,101613.16
2023-08-20T20:14:48.574Z,101615.34
2023-08-20T20:17:18.198Z,101622.22
2023-08-20T20:19:48.363Z,101626.03
2023-08-20T20:22:17.967Z,101615.22
2023-08-20T20:24:50.837Z,101620.44
2023-08-20T20:27:20.438Z,101621.25
2023-08-20T20:29:50.031Z,101631.50
2023-08-20T20:32:20.444Z,101626.22
2023-08-20T20:34:50.001Z,101626.38
2023-08-20T20:37:20.031Z,101633.03
2023-08-20T20:39:52.163Z,101636.59
2023-08-20T20:42:21.740Z,101639.84
2023-08-20T20:44:51.798Z,101633.81
2023-08-20T20:47:21.501Z,101630.75
2023-08-20T20:49:51.174Z,101636.69
2023-08-20T20:52:23.358Z,101629.72
2023-08-20T20:54:55.614Z,101632.50
2023-08-20T20:57:25.419Z,101632.22
2023-08-20T20:59:55.245Z,101626.63
2023-08-20T21:02:24.889Z,101617.16
2023-08-20T21:04:54.486Z,101624.94
2023-08-20T21:07:24.042Z,101625.78
2023-08-20T21:09:57.028Z,101634.72
2023-08-20T21:12:26.779Z,101642.44
2023-08-20T21:14:56.343Z,101642.09
2023-08-20T21:17:26.034Z,101652.66
2023-08-20T21:19:58.661Z,101642.94
2023-08-20T21:22:28.877Z,101646.53
2023-08-20T21:25:01.080Z,101654.84
2023-08-20T21:27:30.686Z,101651.22
2023-08-20T21:30:00.358Z,101644.78
2023-08-20T21:32:31.770Z,101653.66
2023-08-20T21:35:06.679Z,101657.75
2023-08-20T21:37:36.326Z,101662.94
2023-08-20T21:40:09.798Z,101660.16
2023-08-20T21:42:39.650Z,101664.63
2023-08-20T21:45:10.670Z,101666.75
2023-08-20T21:47:48.121Z,101664.50
2023-08-20T21:50:19.052Z,101670.63
2023-08-20T21:52:49.037Z,101680.56
2023-08-20T21:55:21.396Z,101683.59
2023-08-20T21:57:51.020Z,101684.69
2023-08-20T22:00:20.778Z,101682.41
2023-08-20T22:02:51.637Z,101690.97
2023-08-20T22:05:25.629Z,101687.59
2023-08-20T22:07:55.330Z,101685.78
2023-08-20T22:10:27.890Z,101689.28
2023-08-20T22:12:57.632Z,101699.25
2023-08-20T22:15:27.379Z,101699.75
2023-08-20T22:17:56.990Z,101697.34
2023-08-20T22:20:26.663Z,101699.63
2023-08-20T22:22:56.726Z,101688.84
2023-08-20T22:25:28.913Z,101687.38
2023-08-20T22:27:58.498Z,101680.22
2023-08-20T22:30:28.092Z,101689.34
2023-08-20T22:32:58.136Z,101688.13
2023-08-20T22:35:27.831Z,101682.25
2023-08-20T22:38:09.334Z,101673.63
2023-08-20T22:40:43.510Z,101665.34
2023-08-20T22:43:13.287Z,101667.75
2023-08-20T22:45:42.884Z,101675.44
2023-08-20T22:48:12.496Z,101669.84
2023-08-20T22:50:42.148Z,101668.63
2023-08-20T22:53:11.757Z,101669.97
2023-08-20T22:55:43.932Z,101665.03
2023-08-20T22:58:13.523Z,101663.59
2023-08-20T23:00:43.205Z,101663.00
2023-08-20T23:03:12.854Z,101659.06
2023-08-20T23:05:42.519Z,101661.22
2023-08-20T23:08:12.087Z,101660.97
2023-08-20T23:10:44.252Z,101657.63
2023-08-20T23:13:13.882Z,101666.41
2023-08-20T23:15:44.990Z,101665.53
2023-08-20T23:18:14.774Z,101667.38
2023-08-20T23:20:44.385Z,101669.50
2023-08-20T23:23:14.071Z,101671.44
2023-08-20T23:25:46.747Z,101670.00
2023-08-20T23:28:16.353Z,101663.66
2023-08-20T23:30:47.082Z,101665.69
2023-08-20T23:33:17.206Z,101665.31
2023-08-20T23:35:47.136Z,101665.41
2023-08-20T23:38:17.109Z,101665.41
2023-08-20T23:40:49.297Z,101683.53
2023-08-20T23:43:18.924Z,101677.41
2023-08-20T23:45:48.468Z,101670.72
2023-08-20T23:48:18.058Z,101673.00
2023-08-20T23:50:47.656Z,101667.13
2023-08-20T23:53:32.146Z,101661.47
2023-08-20T23:56:04.378Z,101654.03
2023-08-20T23:58:34.034Z,101660.66
